sensor_id;sensor_type;location;lat;lon;timestamp;pressure;altitude;pressure_sealevel;temperature;humidity
66547;BME280;53400;50.364;14.874;2024-03-22T00:01:43;99199.06;;;7.12;96.24
66547;BME280;53400;50.364;14.874;2024-03-22T00:04:09;99200.72;;;7.00;97.27
66547;BME280;53400;50.364;14.874;2024-03-22T00:06:34;99191.75;;;6.81;98.53
66547;BME280;53400;50.364;14.874;2024-03-22T00:09:00;99190.34;;;6.58;99.47
66547;BME280;53400;50.364;14.874;2024-03-22T00:11:26;99190.53;;;6.63;99.54
66547;BME280;53400;50.364;14.874;2024-03-22T00:13:52;99188.88;;;6.62;100.00
66547;BME280;53400;50.364;14.874;2024-03-22T00:16:17;99195.25;;;6.55;100.00
66547;BME280;53400;50.364;14.874;2024-03-22T00:18:45;99200.97;;;6.65;100.00
66547;BME280;53400;50.364;14.874;2024-03-22T00:21:10;99198.47;;;6.24;100.00
66547;BME280;53400;50.364;14.874;2024-03-22T00:23:36;99189.50;;;6.25;100.00
66547;BME280;53400;50.364;14.874;2024-03-22T00:26:02;99193.56;;;6.14;100.00
66547;BME280;53400;50.364;14.874;2024-03-22T00:28:28;99183.31;;;6.04;100.00
66547;BME280;53400;50.364;14.874;2024-03-22T00:30:53;99176.59;;;6.15;100.00
66547;BME280;53400;50.364;14.874;2024-03-22T00:33:19;99177.81;;;6.12;100.00
66547;BME280;53400;50.364;14.874;2024-03-22T00:35:47;99178.41;;;6.14;100.00
66547;BME280;53400;50.364;14.874;2024-03-22T00:38:13;99175.97;;;6.19;100.00
66547;BME280;53400;50.364;14.874;2024-03-22T00:40:39;99177.41;;;6.22;100.00
66547;BME280;53400;50.364;14.874;2024-03-22T00:43:04;99173.53;;;6.44;100.00
66547;BME280;53400;50.364;14.874;2024-03-22T00:45:31;99171.47;;;6.60;100.00
66547;BME280;53400;50.364;14.874;2024-03-22T00:47:57;99176.81;;;6.40;100.00
66547;BME280;53400;50.364;14.874;2024-03-22T00:50:23;99167.00;;;6.40;100.00
66547;BME280;53400;50.364;14.874;2024-03-22T00:52:51;99166.59;;;6.43;100.00
66547;BME280;53400;50.364;14.874;2024-03-22T00:55:21;99169.63;;;6.54;100.00
66547;BME280;53400;50.364;14.874;2024-03-22T00:57:47;99170.25;;;6.56;100.00
66547;BME280;53400;50.364;14.874;2024-03-22T01:00:13;99164.97;;;6.42;100.00
66547;BME280;53400;50.364;14.874;2024-03-22T01:02:41;99171.31;;;6.55;100.00
66547;BME280;53400;50.364;14.874;2024-03-22T01:05:07;99167.59;;;6.56;100.00
66547;BME280;53400;50.364;14.874;2024-03-22T01:07:33;99162.28;;;6.76;100.00
66547;BME280;53400;50.364;14.874;2024-03-22T01:10:00;99167.78;;;6.81;99.73
66547;BME280;53400;50.364;14.874;2024-03-22T01:12:25;99171.66;;;6.78;99.55
66547;BME280;53400;50.364;14.874;2024-03-22T01:14:51;99168.00;;;6.79;99.53
66547;BME280;53400;50.364;14.874;2024-03-22T01:17:17;99174.13;;;6.86;99.24
66547;BME280;53400;50.364;14.874;2024-03-22T01:19:43;99179.88;;;6.83;99.78
66547;BME280;53400;50.364;14.874;2024-03-22T01:22:08;99179.00;;;7.03;98.10
66547;BME280;53400;50.364;14.874;2024-03-22T01:24:34;99176.53;;;7.08;97.88
66547;BME280;53400;50.364;14.874;2024-03-22T01:27:01;99184.69;;;7.26;97.27
66547;BME280;53400;50.364;14.874;2024-03-22T01:29:27;99176.44;;;7.41;96.52
66547;BME280;53400;50.364;14.874;2024-03-22T01:31:56;99170.78;;;7.24;96.29
66547;BME280;53400;50.364;14.874;2024-03-22T01:34:31;99167.47;;;7.29;96.71
66547;BME280;53400;50.364;14.874;2024-03-22T01:36:58;99163.81;;;7.17;97.04
66547;BME280;53400;50.364;14.874;2024-03-22T01:39:23;99166.25;;;7.18;96.85
66547;BME280;53400;50.364;14.874;2024-03-22T01:41:50;99162.59;;;7.12;97.58
66547;BME280;53400;50.364;14.874;2024-03-22T01:44:16;99161.34;;;7.15;97.18
66547;BME280;53400;50.364;14.874;2024-03-22T01:46:43;99155.03;;;7.09;98.43
66547;BME280;53400;50.364;14.874;2024-03-22T01:49:11;99152.94;;;7.25;98.37
66547;BME280;53400;50.364;14.874;2024-03-22T01:51:40;99160.28;;;7.29;97.98
66547;BME280;53400;50.364;14.874;2024-03-22T01:54:08;99141.59;;;7.43;96.92
66547;BME280;53400;50.364;14.874;2024-03-22T01:56:35;99145.19;;;7.17;98.27
66547;BME280;53400;50.364;14.874;2024-03-22T01:59:03;99151.91;;;7.26;98.32
66547;BME280;53400;50.364;14.874;2024-03-22T02:01:29;99138.13;;;7.35;97.69
66547;BME280;53400;50.364;14.874;2024-03-22T02:03:55;99139.41;;;7.26;98.23
66547;BME280;53400;50.364;14.874;2024-03-22T02:06:21;99142.09;;;7.20;99.04
66547;BME280;53400;50.364;14.874;2024-03-22T02:08:48;99138.38;;;7.21;98.05
66547;BME280;53400;50.364;14.874;2024-03-22T02:11:14;99139.22;;;7.21;98.20
66547;BME280;53400;50.364;14.874;2024-03-22T02:13:40;99130.78;;;7.31;97.00
66547;BME280;53400;50.364;14.874;2024-03-22T02:16:06;99128.88;;;7.45;97.75
66547;BME280;53400;50.364;14.874;2024-03-22T02:18:32;99132.47;;;7.19;98.41
66547;BME280;53400;50.364;14.874;2024-03-22T02:20:58;99112.97;;;7.18;99.30
66547;BME280;53400;50.364;14.874;2024-03-22T02:23:31;99118.31;;;7.25;97.52
66547;BME280;53400;50.364;14.874;2024-03-22T02:25:57;99113.22;;;7.10;98.91
66547;BME280;53400;50.364;14.874;2024-03-22T02:28:23;99108.44;;;7.32;98.01
66547;BME280;53400;50.364;14.874;2024-03-22T02:30:49;99103.28;;;7.37;98.20
66547;BME280;53400;50.364;14.874;2024-03-22T02:33:15;99099.50;;;7.58;97.11
66547;BME280;53400;50.364;14.874;2024-03-22T02:35:41;99102.47;;;7.37;97.96
66547;BME280;53400;50.364;14.874;2024-03-22T02:38:06;99088.63;;;7.15;98.30
66547;BME280;53400;50.364;14.874;2024-03-22T02:40:34;99077.00;;;7.47;97.38
66547;BME280;53400;50.364;14.874;2024-03-22T02:43:00;99075.19;;;7.73;95.46
66547;BME280;53400;50.364;14.874;2024-03-22T02:45:26;99072.97;;;7.31;97.52
66547;BME280;53400;50.364;14.874;2024-03-22T02:47:51;99070.44;;;7.50;98.05
66547;BME280;53400;50.364;14.874;2024-03-22T02:50:17;99063.09;;;8.02;94.99
66547;BME280;53400;50.364;14.874;2024-03-22T02:52:43;99064.19;;;8.19;92.95
66547;BME280;53400;50.364;14.874;2024-03-22T02:55:09;99066.19;;;8.24;91.42
66547;BME280;53400;50.364;14.874;2024-03-22T02:57:36;99070.78;;;8.17;92.35
66547;BME280;53400;50.364;14.874;2024-03-22T03:00:02;99060.84;;;7.74;94.71
66547;BME280;53400;50.364;14.874;2024-03-22T03:02:28;99077.53;;;7.18;98.24
66547;BME280;53400;50.364;14.874;2024-03-22T03:04:54;99066.31;;;7.16;99.78
66547;BME280;53400;50.364;14.874;2024-03-22T03:07:20;99067.84;;;7.37;99.07
66547;BME280;53400;50.364;14.874;2024-03-22T03:09:46;99066.25;;;7.22;98.05
66547;BME280;53400;50.364;14.874;2024-03-22T03:12:11;99067.41;;;6.95;100.00
66547;BME280;53400;50.364;14.874;2024-03-22T03:14:42;99059.19;;;6.96;100.00
66547;BME280;53400;50.364;14.874;2024-03-22T03:17:08;99055.09;;;7.39;100.00
66547;BME280;53400;50.364;14.874;2024-03-22T03:19:34;99045.34;;;7.64;96.93
66547;BME280;53400;50.364;14.874;2024-03-22T03:21:59;99045.88;;;7.41;98.25
66547;BME280;53400;50.364;14.874;2024-03-22T03:24:25;99045.72;;;7.68;96.04
66547;BME280;53400;50.364;14.874;2024-03-22T03:26:52;99044.53;;;7.57;96.68
66547;BME280;53400;50.364;14.874;2024-03-22T03:29:17;99039.97;;;7.32;98.22
66547;BME280;53400;50.364;14.874;2024-03-22T03:31:44;99035.81;;;7.75;96.44
66547;BME280;53400;50.364;14.874;2024-03-22T03:34:11;99029.44;;;7.76;95.93
66547;BME280;53400;50.364;14.874;2024-03-22T03:36:37;99042.19;;;7.74;95.78
66547;BME280;53400;50.364;14.874;2024-03-22T03:39:03;99038.09;;;7.71;95.04
66547;BME280;53400;50.364;14.874;2024-03-22T03:41:31;99034.34;;;7.16;98.46
66547;BME280;53400;50.364;14.874;2024-03-22T03:43:57;99031.34;;;7.37;97.12
66547;BME280;53400;50.364;14.874;2024-03-22T03:46:23;99020.13;;;7.28;98.55
66547;BME280;53400;50.364;14.874;2024-03-22T03:48:50;99035.16;;;7.16;99.59
66547;BME280;53400;50.364;14.874;2024-03-22T03:51:16;99024.63;;;7.28;98.29
66547;BME280;53400;50.364;14.874;2024-03-22T03:53:42;99035.56;;;7.83;96.04
66547;BME280;53400;50.364;14.874;2024-03-22T03:56:07;99038.81;;;8.10;94.83
66547;BME280;53400;50.364;14.874;2024-03-22T03:58:34;99034.22;;;8.42;92.10
66547;BME280;53400;50.364;14.874;2024-03-22T04:01:05;99026.22;;;8.17;93.16
66547;BME280;53400;50.364;14.874;2024-03-22T04:03:31;99026.91;;;8.13;93.97
66547;BME280;53400;50.364;14.874;2024-03-22T04:05:58;99017.97;;;8.00;94.67
66547;BME280;53400;50.364;14.874;2024-03-22T04:08:25;99011.13;;;7.86;95.65
66547;BME280;53400;50.364;14.874;2024-03-22T04:10:51;99021.66;;;7.74;96.58
66547;BME280;53400;50.364;14.874;2024-03-22T04:13:17;99011.69;;;7.63;97.48
66547;BME280;53400;50.364;14.874;2024-03-22T04:15:43;99009.25;;;7.62;97.72
66547;BME280;53400;50.364;14.874;2024-03-22T04:18:09;99007.34;;;7.69;97.08
66547;BME280;53400;50.364;14.874;2024-03-22T04:20:34;99008.88;;;7.58;96.98
66547;BME280;53400;50.364;14.874;2024-03-22T04:23:02;99005.72;;;7.68;97.09
66547;BME280;53400;50.364;14.874;2024-03-22T04:25:27;99003.13;;;7.86;95.95
66547;BME280;53400;50.364;14.874;2024-03-22T04:27:53;99010.56;;;7.77;95.88
66547;BME280;53400;50.364;14.874;2024-03-22T04:30:19;99012.03;;;7.73;95.88
66547;BME280;53400;50.364;14.874;2024-03-22T04:32:46;99010.41;;;7.41;98.52
66547;BME280;53400;50.364;14.874;2024-03-22T04:35:12;99013.09;;;7.41;97.98
66547;BME280;53400;50.364;14.874;2024-03-22T04:37:38;99003.13;;;6.84;100.00
66547;BME280;53400;50.364;14.874;2024-03-22T04:40:06;99015.69;;;6.64;100.00
66547;BME280;53400;50.364;14.874;2024-03-22T04:42:32;99008.47;;;6.78;100.00
66547;BME280;53400;50.364;14.874;2024-03-22T04:44:57;99019.22;;;7.03;100.00
66547;BME280;53400;50.364;14.874;2024-03-22T04:47:24;99014.47;;;7.11;100.00
66547;BME280;53400;50.364;14.874;2024-03-22T04:49:50;99013.69;;;7.43;99.32
66547;BME280;53400;50.364;14.874;2024-03-22T04:52:16;99007.34;;;7.69;97.55
66547;BME280;53400;50.364;14.874;2024-03-22T04:54:41;99006.34;;;7.38;99.20
66547;BME280;53400;50.364;14.874;2024-03-22T04:57:09;99004.00;;;7.48;99.06
66547;BME280;53400;50.364;14.874;2024-03-22T04:59:34;99010.50;;;7.59;97.82
66547;BME280;53400;50.364;14.874;2024-03-22T05:02:00;99007.53;;;7.42;98.54
66547;BME280;53400;50.364;14.874;2024-03-22T05:04:26;99019.41;;;7.46;98.79
66547;BME280;53400;50.364;14.874;2024-03-22T05:06:52;99018.06;;;7.62;97.31
66547;BME280;53400;50.364;14.874;2024-03-22T05:09:18;99021.63;;;7.49;96.48
66547;BME280;53400;50.364;14.874;2024-03-22T05:11:45;99021.06;;;7.41;96.14
66547;BME280;53400;50.364;14.874;2024-03-22T05:14:17;99023.06;;;7.52;96.78
66547;BME280;53400;50.364;14.874;2024-03-22T05:16:43;99018.50;;;6.82;100.00
66547;BME280;53400;50.364;14.874;2024-03-22T05:19:09;99026.94;;;6.73;100.00
66547;BME280;53400;50.364;14.874;2024-03-22T05:21:35;99028.53;;;6.80;100.00
66547;BME280;53400;50.364;14.874;2024-03-22T05:24:00;99026.13;;;7.17;100.00
66547;BME280;53400;50.364;14.874;2024-03-22T05:26:26;99028.59;;;7.19;100.00
66547;BME280;53400;50.364;14.874;2024-03-22T05:28:53;99024.88;;;7.20;99.00
66547;BME280;53400;50.364;14.874;2024-03-22T05:31:21;99031.44;;;7.17;100.00
66547;BME280;53400;50.364;14.874;2024-03-22T05:33:46;99027.78;;;7.11;100.00
66547;BME280;53400;50.364;14.874;2024-03-22T05:36:12;99023.75;;;6.96;100.00
66547;BME280;53400;50.364;14.874;2024-03-22T05:38:38;99027.78;;;7.11;100.00
66547;BME280;53400;50.364;14.874;2024-03-22T05:41:04;99018.41;;;7.41;100.00
66547;BME280;53400;50.364;14.874;2024-03-22T05:43:35;99017.22;;;7.37;97.29
66547;BME280;53400;50.364;14.874;2024-03-22T05:46:01;99012.66;;;7.44;97.29
66547;BME280;53400;50.364;14.874;2024-03-22T05:48:27;99013.78;;;7.54;97.85
66547;BME280;53400;50.364;14.874;2024-03-22T05:50:54;99015.22;;;7.57;98.92
66547;BME280;53400;50.364;14.874;2024-03-22T05:53:20;99015.25;;;7.19;100.00
66547;BME280;53400;50.364;14.874;2024-03-22T05:55:46;99020.19;;;6.57;100.00
66547;BME280;53400;50.364;14.874;2024-03-22T05:58:12;99007.88;;;6.69;100.00
66547;BME280;53400;50.364;14.874;2024-03-22T06:00:38;99013.41;;;6.74;100.00
66547;BME280;53400;50.364;14.874;2024-03-22T06:03:04;99011.28;;;6.89;100.00
66547;BME280;53400;50.364;14.874;2024-03-22T06:05:33;99020.78;;;7.17;100.00
66547;BME280;53400;50.364;14.874;2024-03-22T06:07:58;99016.25;;;7.24;100.00
66547;BME280;53400;50.364;14.874;2024-03-22T06:10:24;99016.25;;;7.24;100.00
66547;BME280;53400;50.364;14.874;2024-03-22T06:12:50;99010.22;;;7.35;100.00
66547;BME280;53400;50.364;14.874;2024-03-22T06:15:16;99001.56;;;7.47;100.00
66547;BME280;53400;50.364;14.874;2024-03-22T06:17:41;99010.38;;;7.72;98.57
66547;BME280;53400;50.364;14.874;2024-03-22T06:20:09;99006.78;;;7.60;100.00
66547;BME280;53400;50.364;14.874;2024-03-22T06:22:37;98999.53;;;7.74;98.84
66547;BME280;53400;50.364;14.874;2024-03-22T06:25:04;98993.06;;;7.88;97.48
66547;BME280;53400;50.364;14.874;2024-03-22T06:27:30;98987.28;;;7.91;97.70
66547;BME280;53400;50.364;14.874;2024-03-22T06:29:56;98985.69;;;7.84;99.17
66547;BME280;53400;50.364;14.874;2024-03-22T06:32:21;98986.25;;;7.92;98.93
66547;BME280;53400;50.364;14.874;2024-03-22T06:34:47;98988.84;;;7.99;98.55
66547;BME280;53400;50.364;14.874;2024-03-22T06:37:13;98986.34;;;8.04;98.15
66547;BME280;53400;50.364;14.874;2024-03-22T06:39:40;98988.94;;;8.11;97.77
66547;BME280;53400;50.364;14.874;2024-03-22T06:42:06;98984.75;;;7.96;100.00
66547;BME280;53400;50.364;14.874;2024-03-22T06:44:32;98977.06;;;7.88;99.75
66547;BME280;53400;50.364;14.874;2024-03-22T06:46:58;98977.59;;;8.15;98.70
66547;BME280;53400;50.364;14.874;2024-03-22T06:49:23;98983.34;;;8.19;97.09
66547;BME280;53400;50.364;14.874;2024-03-22T06:51:49;98984.16;;;8.19;98.37
66547;BME280;53400;50.364;14.874;2024-03-22T06:54:15;98981.41;;;8.26;96.90
66547;BME280;53400;50.364;14.874;2024-03-22T06:56:42;98982.34;;;8.38;96.63
66547;BME280;53400;50.364;14.874;2024-03-22T06:59:08;98979.84;;;8.37;97.60
66547;BME280;53400;50.364;14.874;2024-03-22T07:01:33;98980.88;;;8.17;99.83
66547;BME280;53400;50.364;14.874;2024-03-22T07:03:59;98981.16;;;8.27;99.71
66547;BME280;53400;50.364;14.874;2024-03-22T07:06:25;98976.72;;;8.46;97.84
66547;BME280;53400;50.364;14.874;2024-03-22T07:08:52;98977.72;;;8.45;98.29
66547;BME280;53400;50.364;14.874;2024-03-22T07:11:17;98976.41;;;8.11;100.00
66547;BME280;53400;50.364;14.874;2024-03-22T07:13:45;98977.31;;;8.05;100.00
66547;BME280;53400;50.364;14.874;2024-03-22T07:16:10;98972.09;;;7.92;100.00
66547;BME280;53400;50.364;14.874;2024-03-22T07:18:36;98986.19;;;7.99;100.00
66547;BME280;53400;50.364;14.874;2024-03-22T07:21:02;98989.56;;;8.13;100.00
66547;BME280;53400;50.364;14.874;2024-03-22T07:23:29;98984.31;;;7.99;100.00
66547;BME280;53400;50.364;14.874;2024-03-22T07:25:55;98991.00;;;8.09;100.00
66547;BME280;53400;50.364;14.874;2024-03-22T07:28:21;98990.59;;;8.30;100.00
66547;BME280;53400;50.364;14.874;2024-03-22T07:30:48;98980.88;;;8.36;100.00
66547;BME280;53400;50.364;14.874;2024-03-22T07:33:14;98992.25;;;8.31;100.00
66547;BME280;53400;50.364;14.874;2024-03-22T07:35:42;98988.19;;;8.47;100.00
66547;BME280;53400;50.364;14.874;2024-03-22T07:38:08;98974.16;;;8.70;98.80
66547;BME280;53400;50.364;14.874;2024-03-22T07:40:34;98968.34;;;8.36;99.23
66547;BME280;53400;50.364;14.874;2024-03-22T07:43:01;98974.19;;;8.08;100.00
66547;BME280;53400;50.364;14.874;2024-03-22T07:45:31;98969.16;;;8.62;99.44
66547;BME280;53400;50.364;14.874;2024-03-22T07:47:59;98971.34;;;8.83;97.09
66547;BME280;53400;50.364;14.874;2024-03-22T07:50:24;98976.16;;;8.93;97.48
66547;BME280;53400;50.364;14.874;2024-03-22T07:52:50;98970.22;;;9.21;97.06
66547;BME280;53400;50.364;14.874;2024-03-22T07:55:16;98971.97;;;9.69;93.32
66547;BME280;53400;50.364;14.874;2024-03-22T07:57:42;98958.63;;;10.04;90.70
66547;BME280;53400;50.364;14.874;2024-03-22T08:00:08;98956.97;;;10.03;89.08
66547;BME280;53400;50.364;14.874;2024-03-22T08:02:35;98959.28;;;9.53;92.87
66547;BME280;53400;50.364;14.874;2024-03-22T08:05:03;98961.41;;;9.86;92.27
66547;BME280;53400;50.364;14.874;2024-03-22T08:07:29;98955.34;;;10.26;89.75
66547;BME280;53400;50.364;14.874;2024-03-22T08:09:55;98947.28;;;10.49;87.10
66547;BME280;53400;50.364;14.874;2024-03-22T08:12:21;98948.16;;;10.26;86.94
66547;BME280;53400;50.364;14.874;2024-03-22T08:14:47;98938.00;;;10.28;87.47
66547;BME280;53400;50.364;14.874;2024-03-22T08:17:13;98938.91;;;10.57;85.38
66547;BME280;53400;50.364;14.874;2024-03-22T08:19:43;98945.69;;;10.48;85.66
66547;BME280;53400;50.364;14.874;2024-03-22T08:22:11;98934.25;;;10.93;84.82
66547;BME280;53400;50.364;14.874;2024-03-22T08:24:37;98933.84;;;11.30;83.47
66547;BME280;53400;50.364;14.874;2024-03-22T08:27:03;98926.59;;;11.31;83.01
66547;BME280;53400;50.364;14.874;2024-03-22T08:29:29;98921.41;;;11.58;82.34
66547;BME280;53400;50.364;14.874;2024-03-22T08:31:55;98925.72;;;11.92;79.88
66547;BME280;53400;50.364;14.874;2024-03-22T08:34:21;98934.28;;;12.28;79.46
66547;BME280;53400;50.364;14.874;2024-03-22T08:36:47;98916.53;;;11.88;79.83
66547;BME280;53400;50.364;14.874;2024-03-22T08:39:14;98928.88;;;12.06;79.64
66547;BME280;53400;50.364;14.874;2024-03-22T08:41:41;98921.19;;;12.54;76.65
66547;BME280;53400;50.364;14.874;2024-03-22T08:44:06;98927.69;;;12.36;76.50
66547;BME280;53400;50.364;14.874;2024-03-22T08:46:32;98922.34;;;12.19;76.27
66547;BME280;53400;50.364;14.874;2024-03-22T08:48:58;98921.59;;;11.85;74.86
66547;BME280;53400;50.364;14.874;2024-03-22T08:51:24;98913.50;;;11.68;76.77
66547;BME280;53400;50.364;14.874;2024-03-22T08:53:50;98909.78;;;11.86;76.32
66547;BME280;53400;50.364;14.874;2024-03-22T08:56:17;98916.13;;;11.80;77.41
66547;BME280;53400;50.364;14.874;2024-03-22T08:58:43;98915.28;;;12.13;77.09
66547;BME280;53400;50.364;14.874;2024-03-22T09:01:09;98910.94;;;12.51;75.23
66547;BME280;53400;50.364;14.874;2024-03-22T09:03:36;98902.28;;;12.71;75.37
66547;BME280;53400;50.364;14.874;2024-03-22T09:06:02;98895.81;;;12.67;73.53
66547;BME280;53400;50.364;14.874;2024-03-22T09:08:28;98887.94;;;12.60;74.91
66547;BME280;53400;50.364;14.874;2024-03-22T09:10:56;98888.13;;;12.53;70.32
66547;BME280;53400;50.364;14.874;2024-03-22T09:13:23;98889.75;;;12.32;71.95
66547;BME280;53400;50.364;14.874;2024-03-22T09:15:56;98882.31;;;12.61;68.77
66547;BME280;53400;50.364;14.874;2024-03-22T09:18:21;98876.00;;;12.73;72.02
66547;BME280;53400;50.364;14.874;2024-03-22T09:20:47;98876.34;;;12.81;73.11
66547;BME280;53400;50.364;14.874;2024-03-22T09:23:13;98868.44;;;12.97;69.34
66547;BME280;53400;50.364;14.874;2024-03-22T09:25:39;98874.78;;;12.85;70.83
66547;BME280;53400;50.364;14.874;2024-03-22T09:28:05;98879.94;;;12.65;68.77
66547;BME280;53400;50.364;14.874;2024-03-22T09:30:32;98877.31;;;12.97;65.78
66547;BME280;53400;50.364;14.874;2024-03-22T09:32:58;98860.53;;;13.17;67.55
66547;BME280;53400;50.364;14.874;2024-03-22T09:35:24;98863.25;;;13.49;66.39
66547;BME280;53400;50.364;14.874;2024-03-22T09:37:50;98860.41;;;13.61;66.89
66547;BME280;53400;50.364;14.874;2024-03-22T09:40:16;98858.13;;;13.85;67.66
66547;BME280;53400;50.364;14.874;2024-03-22T09:42:41;98858.97;;;13.91;64.23
66547;BME280;53400;50.364;14.874;2024-03-22T09:45:08;98854.16;;;13.56;64.37
66547;BME280;53400;50.364;14.874;2024-03-22T09:47:37;98860.09;;;14.00;62.98
66547;BME280;53400;50.364;14.874;2024-03-22T09:50:06;98857.31;;;13.85;60.70
66547;BME280;53400;50.364;14.874;2024-03-22T09:52:33;98856.03;;;14.03;61.89
66547;BME280;53400;50.364;14.874;2024-03-22T09:54:59;98839.88;;;13.97;62.93
66547;BME280;53400;50.364;14.874;2024-03-22T09:57:26;98847.16;;;13.97;63.00
66547;BME280;53400;50.364;14.874;2024-03-22T09:59:52;98842.72;;;14.28;62.02
66547;BME280;53400;50.364;14.874;2024-03-22T10:02:19;98840.66;;;13.93;59.63
66547;BME280;53400;50.364;14.874;2024-03-22T10:04:47;98834.22;;;13.99;61.51
66547;BME280;53400;50.364;14.874;2024-03-22T10:07:13;98831.53;;;13.94;61.66
66547;BME280;53400;50.364;14.874;2024-03-22T10:09:39;98825.81;;;13.90;62.77
66547;BME280;53400;50.364;14.874;2024-03-22T10:12:07;98818.06;;;13.94;62.48
66547;BME280;53400;50.364;14.874;2024-03-22T10:14:33;98828.13;;;14.24;61.54
66547;BME280;53400;50.364;14.874;2024-03-22T10:16:59;98823.09;;;14.48;58.87
66547;BME280;53400;50.364;14.874;2024-03-22T10:19:25;98824.16;;;14.42;59.17
66547;BME280;53400;50.364;14.874;2024-03-22T10:22:01;98816.97;;;14.63;58.37
66547;BME280;53400;50.364;14.874;2024-03-22T10:24:27;98822.13;;;14.85;59.60
66547;BME280;53400;50.364;14.874;2024-03-22T10:26:53;98819.56;;;14.37;61.97
66547;BME280;53400;50.364;14.874;2024-03-22T10:29:19;98819.72;;;14.00;62.12
66547;BME280;53400;50.364;14.874;2024-03-22T10:31:45;98814.66;;;14.19;63.50
66547;BME280;53400;50.364;14.874;2024-03-22T10:34:13;98814.38;;;14.15;62.71
66547;BME280;53400;50.364;14.874;2024-03-22T10:36:39;98810.91;;;14.25;63.42
66547;BME280;53400;50.364;14.874;2024-03-22T10:39:07;98807.09;;;14.16;64.79
66547;BME280;53400;50.364;14.874;2024-03-22T10:41:34;98805.28;;;14.32;64.22
66547;BME280;53400;50.364;14.874;2024-03-22T10:44:00;98802.81;;;14.30;64.13
66547;BME280;53400;50.364;14.874;2024-03-22T10:46:29;98800.69;;;14.32;63.28
66547;BME280;53400;50.364;14.874;2024-03-22T10:48:56;98790.91;;;14.11;63.52
66547;BME280;53400;50.364;14.874;2024-03-22T10:51:22;98790.13;;;13.58;64.01
66547;BME280;53400;50.364;14.874;2024-03-22T10:53:50;98787.13;;;14.02;65.75
66547;BME280;53400;50.364;14.874;2024-03-22T10:56:18;98776.66;;;14.10;63.66
66547;BME280;53400;50.364;14.874;2024-03-22T10:58:44;98777.53;;;14.31;63.75
66547;BME280;53400;50.364;14.874;2024-03-22T11:01:22;98769.94;;;14.13;63.22
66547;BME280;53400;50.364;14.874;2024-03-22T11:03:48;98770.31;;;13.31;65.13
66547;BME280;53400;50.364;14.874;2024-03-22T11:06:18;98757.66;;;13.74;65.05
66547;BME280;53400;50.364;14.874;2024-03-22T11:08:44;98761.53;;;13.99;66.21
66547;BME280;53400;50.364;14.874;2024-03-22T11:11:10;98760.25;;;14.27;64.75
66547;BME280;53400;50.364;14.874;2024-03-22T11:13:38;98760.00;;;14.18;62.81
66547;BME280;53400;50.364;14.874;2024-03-22T11:16:05;98760.06;;;13.71;65.32
66547;BME280;53400;50.364;14.874;2024-03-22T11:18:33;98754.16;;;13.74;66.50
66547;BME280;53400;50.364;14.874;2024-03-22T11:20:59;98754.31;;;13.57;65.23
66547;BME280;53400;50.364;14.874;2024-03-22T11:23:26;98753.31;;;13.68;65.55
66547;BME280;53400;50.364;14.874;2024-03-22T11:25:51;98754.19;;;13.84;65.76
66547;BME280;53400;50.364;14.874;2024-03-22T11:28:17;98746.97;;;13.95;65.61
66547;BME280;53400;50.364;14.874;2024-03-22T11:30:45;98747.31;;;14.24;66.70
66547;BME280;53400;50.364;14.874;2024-03-22T11:33:12;98750.22;;;13.97;65.90
66547;BME280;53400;50.364;14.874;2024-03-22T11:35:38;98737.88;;;14.16;65.36
66547;BME280;53400;50.364;14.874;2024-03-22T11:38:04;98731.44;;;14.22;63.82
66547;BME280;53400;50.364;14.874;2024-03-22T11:40:31;98728.69;;;13.97;65.91
66547;BME280;53400;50.364;14.874;2024-03-22T11:42:58;98722.56;;;14.22;65.55
66547;BME280;53400;50.364;14.874;2024-03-22T11:45:25;98721.25;;;14.40;62.50
66547;BME280;53400;50.364;14.874;2024-03-22T11:47:53;98712.13;;;14.66;64.63
66547;BME280;53400;50.364;14.874;2024-03-22T11:50:19;98712.91;;;14.87;62.34
66547;BME280;53400;50.364;14.874;2024-03-22T11:52:45;98704.03;;;14.72;64.86
66547;BME280;53400;50.364;14.874;2024-03-22T11:55:14;98700.00;;;14.74;64.25
66547;BME280;53400;50.364;14.874;2024-03-22T11:57:40;98698.91;;;14.90;62.19
66547;BME280;53400;50.364;14.874;2024-03-22T12:00:07;98690.53;;;14.87;64.12
66547;BME280;53400;50.364;14.874;2024-03-22T12:02:36;98686.75;;;14.93;62.61
66547;BME280;53400;50.364;14.874;2024-03-22T12:05:04;98671.94;;;14.44;61.49
66547;BME280;53400;50.364;14.874;2024-03-22T12:07:31;98661.16;;;14.39;63.27
66547;BME280;53400;50.364;14.874;2024-03-22T12:09:58;98649.31;;;14.76;61.91
66547;BME280;53400;50.364;14.874;2024-03-22T12:12:24;98658.44;;;14.90;62.88
66547;BME280;53400;50.364;14.874;2024-03-22T12:14:50;98660.59;;;14.32;62.67
66547;BME280;53400;50.364;14.874;2024-03-22T12:17:17;98658.72;;;14.33;63.76
66547;BME280;53400;50.364;14.874;2024-03-22T12:19:42;98657.34;;;14.30;64.96
66547;BME280;53400;50.364;14.874;2024-03-22T12:22:10;98661.41;;;14.33;66.21
66547;BME280;53400;50.364;14.874;2024-03-22T12:24:35;98654.97;;;14.80;63.78
66547;BME280;53400;50.364;14.874;2024-03-22T12:27:02;98653.88;;;14.96;63.10
66547;BME280;53400;50.364;14.874;2024-03-22T12:29:28;98644.09;;;15.31;62.65
66547;BME280;53400;50.364;14.874;2024-03-22T12:31:54;98632.75;;;15.24;62.86
66547;BME280;53400;50.364;14.874;2024-03-22T12:34:19;98639.00;;;15.14;63.90
66547;BME280;53400;50.364;14.874;2024-03-22T12:36:45;98623.53;;;15.35;61.03
66547;BME280;53400;50.364;14.874;2024-03-22T12:39:12;98619.25;;;15.29;62.94
66547;BME280;53400;50.364;14.874;2024-03-22T12:41:38;98618.69;;;15.32;60.55
66547;BME280;53400;50.364;14.874;2024-03-22T12:44:04;98614.34;;;15.41;62.79
66547;BME280;53400;50.364;14.874;2024-03-22T12:46:30;98607.41;;;15.25;60.21
66547;BME280;53400;50.364;14.874;2024-03-22T12:48:56;98604.97;;;15.23;60.38
66547;BME280;53400;50.364;14.874;2024-03-22T12:51:22;98603.06;;;15.24;61.51